sensor_id;sensor_type;location;lat;lon;timestamp;pressure;altitude;pressure_sealevel;temperature;humidity
74075;BME280;62428;51.412;5.432;2023-07-02T00:01:45;100620.69;;;17.40;79.93
74075;BME280;62428;51.412;5.432;2023-07-02T00:04:12;100612.53;;;17.40;80.06
74075;BME280;62428;51.412;5.432;2023-07-02T00:06:43;100610.16;;;17.38;80.53
74075;BME280;62428;51.412;5.432;2023-07-02T00:09:12;100605.75;;;17.34;79.89
74075;BME280;62428;51.412;5.432;2023-07-02T00:11:38;100601.81;;;17.31;79.63
74075;BME280;62428;51.412;5.432;2023-07-02T00:14:05;100601.03;;;17.31;79.64
74075;BME280;62428;51.412;5.432;2023-07-02T00:16:30;100601.34;;;17.29;79.18
74075;BME280;62428;51.412;5.432;2023-07-02T00:18:55;100604.41;;;17.27;79.07
74075;BME280;62428;51.412;5.432;2023-07-02T00:21:21;100603.97;;;17.25;79.39
74075;BME280;62428;51.412;5.432;2023-07-02T00:23:47;100600.81;;;17.23;78.90
74075;BME280;62428;51.412;5.432;2023-07-02T00:26:13;100600.38;;;17.21;79.27
74075;BME280;62428;51.412;5.432;2023-07-02T00:28:38;100604.19;;;17.20;79.98
74075;BME280;62428;51.412;5.432;2023-07-02T00:31:04;100600.69;;;17.20;80.17
74075;BME280;62428;51.412;5.432;2023-07-02T00:33:31;100598.78;;;17.20;79.12
74075;BME280;62428;51.412;5.432;2023-07-02T00:35:56;100600.25;;;17.18;79.75
74075;BME280;62428;51.412;5.432;2023-07-02T00:38:22;100609.63;;;17.20;79.73
74075;BME280;62428;51.412;5.432;2023-07-02T00:40:47;100606.47;;;17.18;79.81
74075;BME280;62428;51.412;5.432;2023-07-02T00:43:12;100608.41;;;17.18;79.24
74075;BME280;62428;51.412;5.432;2023-07-02T00:45:41;100604.44;;;17.15;79.83
74075;BME280;62428;51.412;5.432;2023-07-02T00:48:06;100599.78;;;17.16;80.03
74075;BME280;62428;51.412;5.432;2023-07-02T00:50:32;100599.78;;;17.16;79.67
74075;BME280;62428;51.412;5.432;2023-07-02T00:52:58;100595.16;;;17.16;79.88
74075;BME280;62428;51.412;5.432;2023-07-02T00:55:23;100605.22;;;17.16;79.52
74075;BME280;62428;51.412;5.432;2023-07-02T00:57:49;100614.16;;;17.16;79.71
74075;BME280;62428;51.412;5.432;2023-07-02T01:00:15;100607.13;;;17.15;79.51
74075;BME280;62428;51.412;5.432;2023-07-02T01:02:40;100607.81;;;17.12;79.03
74075;BME280;62428;51.412;5.432;2023-07-02T01:05:14;100611.69;;;17.11;79.66
74075;BME280;62428;51.412;5.432;2023-07-02T01:07:39;100613.16;;;17.08;79.55
74075;BME280;62428;51.412;5.432;2023-07-02T01:10:05;100609.19;;;17.06;79.29
74075;BME280;62428;51.412;5.432;2023-07-02T01:12:31;100615.28;;;17.03;79.87
74075;BME280;62428;51.412;5.432;2023-07-02T01:15:00;100612.13;;;17.01;79.56
74075;BME280;62428;51.412;5.432;2023-07-02T01:17:27;100612.94;;;17.01;80.07
74075;BME280;62428;51.412;5.432;2023-07-02T01:19:55;100616.78;;;17.00;79.75
74075;BME280;62428;51.412;5.432;2023-07-02T01:22:25;100615.19;;;16.99;79.67
74075;BME280;62428;51.412;5.432;2023-07-02T01:24:51;100617.09;;;16.99;79.67
74075;BME280;62428;51.412;5.432;2023-07-02T01:27:17;100626.41;;;16.98;79.71
74075;BME280;62428;51.412;5.432;2023-07-02T01:29:43;100625.59;;;16.97;79.92
74075;BME280;62428;51.412;5.432;2023-07-02T01:32:12;100629.09;;;16.98;79.98
74075;BME280;62428;51.412;5.432;2023-07-02T01:34:37;100623.19;;;16.96;79.88
74075;BME280;62428;51.412;5.432;2023-07-02T01:37:03;100627.50;;;16.97;79.90
74075;BME280;62428;51.412;5.432;2023-07-02T01:39:29;100628.28;;;16.97;79.80
74075;BME280;62428;51.412;5.432;2023-07-02T01:41:55;100632.94;;;16.97;80.17
74075;BME280;62428;51.412;5.432;2023-07-02T01:44:31;100637.91;;;16.95;79.98
74075;BME280;62428;51.412;5.432;2023-07-02T01:46:56;100639.03;;;16.94;80.14
74075;BME280;62428;51.412;5.432;2023-07-02T01:49:24;100630.91;;;16.94;79.81
74075;BME280;62428;51.412;5.432;2023-07-02T01:51:53;100639.41;;;16.92;80.39
74075;BME280;62428;51.412;5.432;2023-07-02T01:54:19;100647.53;;;16.92;80.62
74075;BME280;62428;51.412;5.432;2023-07-02T01:56:45;100645.16;;;16.90;80.64
74075;BME280;62428;51.412;5.432;2023-07-02T01:59:11;100642.91;;;16.93;80.87
74075;BME280;62428;51.412;5.432;2023-07-02T02:01:36;100642.13;;;16.92;80.85
74075;BME280;62428;51.412;5.432;2023-07-02T02:04:06;100644.81;;;16.92;80.84
74075;BME280;62428;51.412;5.432;2023-07-02T02:06:31;100645.94;;;16.91;80.67
74075;BME280;62428;51.412;5.432;2023-07-02T02:08:56;100645.50;;;16.89;81.10
74075;BME280;62428;51.412;5.432;2023-07-02T02:11:22;100643.56;;;16.89;81.00
74075;BME280;62428;51.412;5.432;2023-07-02T02:13:47;100640.41;;;16.87;80.78
74075;BME280;62428;51.412;5.432;2023-07-02T02:16:14;100648.53;;;16.87;81.05
74075;BME280;62428;51.412;5.432;2023-07-02T02:18:39;100647.31;;;16.85;81.03
74075;BME280;62428;51.412;5.432;2023-07-02T02:21:04;100648.09;;;16.85;81.46
74075;BME280;62428;51.412;5.432;2023-07-02T02:23:30;100648.72;;;16.82;81.37
74075;BME280;62428;51.412;5.432;2023-07-02T02:25:55;100645.72;;;16.84;81.84
74075;BME280;62428;51.412;5.432;2023-07-02T02:28:20;100639.16;;;16.85;81.62
74075;BME280;62428;51.412;5.432;2023-07-02T02:30:46;100638.03;;;16.86;81.89
74075;BME280;62428;51.412;5.432;2023-07-02T02:33:11;100647.31;;;16.85;81.26
74075;BME280;62428;51.412;5.432;2023-07-02T02:35:37;100644.94;;;16.83;81.96
74075;BME280;62428;51.412;5.432;2023-07-02T02:38:03;100656.09;;;16.82;81.57
74075;BME280;62428;51.412;5.432;2023-07-02T02:40:29;100647.16;;;16.81;81.84
74075;BME280;62428;51.412;5.432;2023-07-02T02:42:55;100652.25;;;16.83;82.16
74075;BME280;62428;51.412;5.432;2023-07-02T02:45:20;100649.88;;;16.81;82.14
74075;BME280;62428;51.412;5.432;2023-07-02T02:47:46;100650.66;;;16.82;82.17
74075;BME280;62428;51.412;5.432;2023-07-02T02:50:13;100658.00;;;16.81;82.17
74075;BME280;62428;51.412;5.432;2023-07-02T02:52:38;100652.09;;;16.79;82.47
74075;BME280;62428;51.412;5.432;2023-07-02T02:55:05;100657.53;;;16.79;82.30
74075;BME280;62428;51.412;5.432;2023-07-02T02:57:32;100661.41;;;16.78;82.09
74075;BME280;62428;51.412;5.432;2023-07-02T02:59:57;100666.38;;;16.76;82.36
74075;BME280;62428;51.412;5.432;2023-07-02T03:02:23;100672.91;;;16.75;82.25
74075;BME280;62428;51.412;5.432;2023-07-02T03:04:48;100674.50;;;16.76;81.86
74075;BME280;62428;51.412;5.432;2023-07-02T03:07:15;100676.75;;;16.74;82.47
74075;BME280;62428;51.412;5.432;2023-07-02T03:09:40;100678.22;;;16.71;82.54
74075;BME280;62428;51.412;5.432;2023-07-02T03:12:06;100685.13;;;16.69;82.43
74075;BME280;62428;51.412;5.432;2023-07-02T03:14:32;100686.13;;;16.64;82.49
74075;BME280;62428;51.412;5.432;2023-07-02T03:16:57;100687.59;;;16.62;82.42
74075;BME280;62428;51.412;5.432;2023-07-02T03:19:24;100691.78;;;16.59;82.58
74075;BME280;62428;51.412;5.432;2023-07-02T03:21:49;100696.72;;;16.57;82.79
74075;BME280;62428;51.412;5.432;2023-07-02T03:24:14;100692.31;;;16.52;82.76
74075;BME280;62428;51.412;5.432;2023-07-02T03:26:42;100695.69;;;16.49;82.96
74075;BME280;62428;51.412;5.432;2023-07-02T03:29:08;100691.41;;;16.48;82.93
74075;BME280;62428;51.412;5.432;2023-07-02T03:31:33;100696.00;;;16.48;82.98
74075;BME280;62428;51.412;5.432;2023-07-02T03:34:03;100706.06;;;16.47;83.16
74075;BME280;62428;51.412;5.432;2023-07-02T03:36:28;100709.13;;;16.46;83.40
74075;BME280;62428;51.412;5.432;2023-07-02T03:38:53;100706.28;;;16.42;82.39
74075;BME280;62428;51.412;5.432;2023-07-02T03:41:19;100710.47;;;16.40;82.11
74075;BME280;62428;51.412;5.432;2023-07-02T03:43:44;100710.00;;;16.38;82.47
74075;BME280;62428;51.412;5.432;2023-07-02T03:46:09;100710.00;;;16.38;82.21
74075;BME280;62428;51.412;5.432;2023-07-02T03:48:35;100709.19;;;16.37;82.25
74075;BME280;62428;51.412;5.432;2023-07-02T03:51:01;100717.31;;;16.37;81.96
74075;BME280;62428;51.412;5.432;2023-07-02T03:53:27;100716.53;;;16.37;81.92
74075;BME280;62428;51.412;5.432;2023-07-02T03:55:52;100713.84;;;16.37;81.09
74075;BME280;62428;51.412;5.432;2023-07-02T03:58:18;100717.19;;;16.33;81.22
74075;BME280;62428;51.412;5.432;2023-07-02T04:00:43;100723.44;;;16.34;81.24
74075;BME280;62428;51.412;5.432;2023-07-02T04:03:09;100721.50;;;16.34;81.13
74075;BME280;62428;51.412;5.432;2023-07-02T04:05:34;100731.56;;;16.34;81.26
74075;BME280;62428;51.412;5.432;2023-07-02T04:08:00;100731.13;;;16.32;81.38
74075;BME280;62428;51.412;5.432;2023-07-02T04:10:25;100730.31;;;16.31;81.59
74075;BME280;62428;51.412;5.432;2023-07-02T04:12:50;100729.19;;;16.32;81.61
74075;BME280;62428;51.412;5.432;2023-07-02T04:15:16;100733.81;;;16.32;81.83
74075;BME280;62428;51.412;5.432;2023-07-02T04:17:41;100737.31;;;16.32;81.79
74075;BME280;62428;51.412;5.432;2023-07-02T04:20:07;100730.75;;;16.33;81.84
74075;BME280;62428;51.412;5.432;2023-07-02T04:22:33;100738.88;;;16.33;82.11
74075;BME280;62428;51.412;5.432;2023-07-02T04:24:58;100739.38;;;16.36;82.44
74075;BME280;62428;51.412;5.432;2023-07-02T04:27:24;100743.19;;;16.34;82.38
74075;BME280;62428;51.412;5.432;2023-07-02T04:29:49;100744.78;;;16.36;82.08
74075;BME280;62428;51.412;5.432;2023-07-02T04:32:15;100745.13;;;16.34;81.72
74075;BME280;62428;51.412;5.432;2023-07-02T04:34:40;100740.81;;;16.33;81.87
74075;BME280;62428;51.412;5.432;2023-07-02T04:37:08;100743.06;;;16.31;81.87
74075;BME280;62428;51.412;5.432;2023-07-02T04:39:34;100739.25;;;16.32;81.32
74075;BME280;62428;51.412;5.432;2023-07-02T04:41:59;100744.66;;;16.32;80.80
74075;BME280;62428;51.412;5.432;2023-07-02T04:44:24;100743.53;;;16.33;80.42
74075;BME280;62428;51.412;5.432;2023-07-02T04:47:01;100755.16;;;16.33;80.04
74075;BME280;62428;51.412;5.432;2023-07-02T04:49:27;100751.66;;;16.33;79.63
74075;BME280;62428;51.412;5.432;2023-07-02T04:51:53;100754.81;;;16.35;79.82
74075;BME280;62428;51.412;5.432;2023-07-02T04:54:20;100757.53;;;16.35;77.82
74075;BME280;62428;51.412;5.432;2023-07-02T04:56:46;100755.16;;;16.33;77.80
74075;BME280;62428;51.412;5.432;2023-07-02T04:59:12;100761.84;;;16.36;78.27
74075;BME280;62428;51.412;5.432;2023-07-02T05:01:37;100757.66;;;16.39;76.67
74075;BME280;62428;51.412;5.432;2023-07-02T05:04:02;100766.63;;;16.39;76.98
74075;BME280;62428;51.412;5.432;2023-07-02T05:06:28;100772.16;;;16.43;76.45
74075;BME280;62428;51.412;5.432;2023-07-02T05:08:53;100767.66;;;16.47;74.56
74075;BME280;62428;51.412;5.432;2023-07-02T05:11:18;100763.47;;;16.49;74.03
74075;BME280;62428;51.412;5.432;2023-07-02T05:13:44;100769.69;;;16.50;73.61
74075;BME280;62428;51.412;5.432;2023-07-02T05:16:09;100777.16;;;16.53;73.28
74075;BME280;62428;51.412;5.432;2023-07-02T05:18:35;100774.56;;;16.57;72.62
74075;BME280;62428;51.412;5.432;2023-07-02T05:21:01;100779.34;;;16.60;72.62
74075;BME280;62428;51.412;5.432;2023-07-02T05:23:26;100785.56;;;16.60;71.96
74075;BME280;62428;51.412;5.432;2023-07-02T05:25:52;100788.72;;;16.62;70.64
74075;BME280;62428;51.412;5.432;2023-07-02T05:28:17;100790.31;;;16.63;70.78
74075;BME280;62428;51.412;5.432;2023-07-02T05:30:43;100793.81;;;16.64;69.77
74075;BME280;62428;51.412;5.432;2023-07-02T05:33:08;100794.28;;;16.66;69.84
74075;BME280;62428;51.412;5.432;2023-07-02T05:35:33;100797.09;;;16.69;69.74
74075;BME280;62428;51.412;5.432;2023-07-02T05:37:59;100797.22;;;16.73;69.60
74075;BME280;62428;51.412;5.432;2023-07-02T05:40:24;100799.75;;;16.78;69.65
74075;BME280;62428;51.412;5.432;2023-07-02T05:42:49;100801.78;;;16.81;69.50
74075;BME280;62428;51.412;5.432;2023-07-02T05:45:15;100802.72;;;16.85;69.74
74075;BME280;62428;51.412;5.432;2023-07-02T05:47:40;100806.81;;;16.91;69.56
74075;BME280;62428;51.412;5.432;2023-07-02T05:50:07;100819.06;;;16.98;69.70
74075;BME280;62428;51.412;5.432;2023-07-02T05:52:33;100814.88;;;17.00;69.81
74075;BME280;62428;51.412;5.432;2023-07-02T05:54:58;100813.88;;;17.05;69.65
74075;BME280;62428;51.412;5.432;2023-07-02T05:57:23;100815.91;;;17.08;69.49
74075;BME280;62428;51.412;5.432;2023-07-02T05:59:49;100812.84;;;17.09;69.82
74075;BME280;62428;51.412;5.432;2023-07-02T06:02:14;100824.16;;;17.12;70.02
74075;BME280;62428;51.412;5.432;2023-07-02T06:04:39;100828.16;;;17.14;68.27
74075;BME280;62428;51.412;5.432;2023-07-02T06:07:05;100824.94;;;17.12;68.34
74075;BME280;62428;51.412;5.432;2023-07-02T06:09:30;100832.44;;;17.15;67.60
74075;BME280;62428;51.412;5.432;2023-07-02T06:11:56;100837.66;;;17.20;67.60
74075;BME280;62428;51.412;5.432;2023-07-02T06:14:22;100842.53;;;17.27;66.60
74075;BME280;62428;51.412;5.432;2023-07-02T06:16:50;100838.56;;;17.37;66.83
74075;BME280;62428;51.412;5.432;2023-07-02T06:19:16;100835.31;;;17.56;66.59
74075;BME280;62428;51.412;5.432;2023-07-02T06:21:41;100837.13;;;17.76;64.42
74075;BME280;62428;51.412;5.432;2023-07-02T06:24:07;100842.34;;;17.94;63.98
74075;BME280;62428;51.412;5.432;2023-07-02T06:26:32;100840.97;;;18.12;63.21
74075;BME280;62428;51.412;5.432;2023-07-02T06:28:57;100838.00;;;18.30;60.66
74075;BME280;62428;51.412;5.432;2023-07-02T06:31:23;100846.22;;;18.46;60.29
74075;BME280;62428;51.412;5.432;2023-07-02T06:33:49;100844.41;;;18.50;60.29
74075;BME280;62428;51.412;5.432;2023-07-02T06:36:14;100850.53;;;18.47;60.83
74075;BME280;62428;51.412;5.432;2023-07-02T06:38:40;100850.41;;;18.43;60.59
74075;BME280;62428;51.412;5.432;2023-07-02T06:41:05;100843.75;;;18.40;60.40
74075;BME280;62428;51.412;5.432;2023-07-02T06:43:31;100857.00;;;18.42;59.25
74075;BME280;62428;51.412;5.432;2023-07-02T06:45:56;100856.63;;;18.43;58.99
74075;BME280;62428;51.412;5.432;2023-07-02T06:48:21;100857.56;;;18.48;59.48
74075;BME280;62428;51.412;5.432;2023-07-02T06:50:47;100861.84;;;18.49;59.39
74075;BME280;62428;51.412;5.432;2023-07-02T06:53:12;100863.88;;;18.52;59.00
74075;BME280;62428;51.412;5.432;2023-07-02T06:55:37;100867.84;;;18.54;60.21
74075;BME280;62428;51.412;5.432;2023-07-02T06:58:05;100873.16;;;18.51;59.00
74075;BME280;62428;51.412;5.432;2023-07-02T07:00:32;100884.16;;;18.54;60.09
74075;BME280;62428;51.412;5.432;2023-07-02T07:03:04;100871.19;;;18.63;60.51
74075;BME280;62428;51.412;5.432;2023-07-02T07:05:32;100882.44;;;18.62;59.20
74075;BME280;62428;51.412;5.432;2023-07-02T07:07:59;100888.13;;;18.57;59.85
74075;BME280;62428;51.412;5.432;2023-07-02T07:10:26;100888.81;;;18.54;60.98
74075;BME280;62428;51.412;5.432;2023-07-02T07:12:51;100892.31;;;18.54;60.96
74075;BME280;62428;51.412;5.432;2023-07-02T07:15:17;100880.50;;;18.62;61.46
74075;BME280;62428;51.412;5.432;2023-07-02T07:17:42;100883.34;;;18.66;60.01
74075;BME280;62428;51.412;5.432;2023-07-02T07:20:08;100891.84;;;18.64;59.92
74075;BME280;62428;51.412;5.432;2023-07-02T07:22:33;100900.34;;;18.63;60.68
74075;BME280;62428;51.412;5.432;2023-07-02T07:24:59;100891.41;;;18.62;59.99
74075;BME280;62428;51.412;5.432;2023-07-02T07:27:25;100897.63;;;18.63;60.11
74075;BME280;62428;51.412;5.432;2023-07-02T07:29:50;100901.00;;;18.72;59.10
74075;BME280;62428;51.412;5.432;2023-07-02T07:32:15;100903.28;;;18.70;58.73
74075;BME280;62428;51.412;5.432;2023-07-02T07:34:42;100914.06;;;18.67;58.09
74075;BME280;62428;51.412;5.432;2023-07-02T07:37:07;100919.06;;;18.64;56.68
74075;BME280;62428;51.412;5.432;2023-07-02T07:39:33;100915.09;;;18.62;56.87
74075;BME280;62428;51.412;5.432;2023-07-02T07:41:58;100924.38;;;18.61;57.57
74075;BME280;62428;51.412;5.432;2023-07-02T07:44:24;100917.72;;;18.58;57.92
74075;BME280;62428;51.412;5.432;2023-07-02T07:46:54;100918.94;;;18.61;56.96
74075;BME280;62428;51.412;5.432;2023-07-02T07:49:20;100918.59;;;18.62;57.42
74075;BME280;62428;51.412;5.432;2023-07-02T07:51:46;100908.81;;;18.74;57.66
74075;BME280;62428;51.412;5.432;2023-07-02T07:54:11;100903.44;;;19.02;56.96
74075;BME280;62428;51.412;5.432;2023-07-02T07:56:36;100914.91;;;19.39;56.83
74075;BME280;62428;51.412;5.432;2023-07-02T07:59:02;100914.94;;;19.71;54.66
74075;BME280;62428;51.412;5.432;2023-07-02T08:01:27;100919.25;;;19.88;55.27
74075;BME280;62428;51.412;5.432;2023-07-02T08:03:53;100922.78;;;19.89;55.18
74075;BME280;62428;51.412;5.432;2023-07-02T08:06:18;100916.09;;;19.86;55.72
74075;BME280;62428;51.412;5.432;2023-07-02T08:08:44;100921.03;;;19.81;54.72
74075;BME280;62428;51.412;5.432;2023-07-02T08:11:09;100923.13;;;19.87;54.62
74075;BME280;62428;51.412;5.432;2023-07-02T08:13:35;100925.06;;;20.03;53.79
74075;BME280;62428;51.412;5.432;2023-07-02T08:16:00;100930.13;;;20.20;53.98
74075;BME280;62428;51.412;5.432;2023-07-02T08:18:25;100930.72;;;20.29;53.28
74075;BME280;62428;51.412;5.432;2023-07-02T08:20:51;100929.66;;;20.34;53.43
74075;BME280;62428;51.412;5.432;2023-07-02T08:23:16;100927.28;;;20.32;54.26
74075;BME280;62428;51.412;5.432;2023-07-02T08:25:41;100929.84;;;20.25;51.96
74075;BME280;62428;51.412;5.432;2023-07-02T08:28:07;100943.16;;;20.27;52.19
74075;BME280;62428;51.412;5.432;2023-07-02T08:30:32;100944.09;;;20.34;52.14
74075;BME280;62428;51.412;5.432;2023-07-02T08:32:58;100942.13;;;20.51;51.93
74075;BME280;62428;51.412;5.432;2023-07-02T08:35:23;100950.81;;;20.57;51.25
74075;BME280;62428;51.412;5.432;2023-07-02T08:37:48;100944.75;;;20.47;51.26
74075;BME280;62428;51.412;5.432;2023-07-02T08:40:18;100945.94;;;20.30;52.60
74075;BME280;62428;51.412;5.432;2023-07-02T08:42:47;100956.72;;;20.07;51.57
74075;BME280;62428;51.412;5.432;2023-07-02T08:45:14;100950.72;;;19.86;51.80
74075;BME280;62428;51.412;5.432;2023-07-02T08:47:40;100953.09;;;19.71;50.84
74075;BME280;62428;51.412;5.432;2023-07-02T08:50:06;100956.44;;;19.65;50.22
74075;BME280;62428;51.412;5.432;2023-07-02T08:52:31;100954.81;;;19.64;49.92
74075;BME280;62428;51.412;5.432;2023-07-02T08:54:57;100958.38;;;19.64;51.05
74075;BME280;62428;51.412;5.432;2023-07-02T08:57:22;100963.66;;;19.73;51.46
74075;BME280;62428;51.412;5.432;2023-07-02T08:59:47;100957.84;;;19.74;51.54
74075;BME280;62428;51.412;5.432;2023-07-02T09:02:14;100956.72;;;19.75;52.02
74075;BME280;62428;51.412;5.432;2023-07-02T09:04:39;100958.72;;;19.78;51.81
74075;BME280;62428;51.412;5.432;2023-07-02T09:07:06;100961.94;;;19.81;51.95
74075;BME280;62428;51.412;5.432;2023-07-02T09:09:33;100958.28;;;19.76;52.28
74075;BME280;62428;51.412;5.432;2023-07-02T09:11:59;100953.78;;;19.68;53.06
74075;BME280;62428;51.412;5.432;2023-07-02T09:14:29;100954.03;;;19.63;53.47
74075;BME280;62428;51.412;5.432;2023-07-02T09:17:06;100957.31;;;19.69;53.36
74075;BME280;62428;51.412;5.432;2023-07-02T09:19:32;100957.84;;;19.74;50.99
74075;BME280;62428;51.412;5.432;2023-07-02T09:21:59;100955.56;;;19.76;49.69
74075;BME280;62428;51.412;5.432;2023-07-02T09:24:26;100968.84;;;19.78;50.20
74075;BME280;62428;51.412;5.432;2023-07-02T09:26:56;100967.28;;;19.77;50.49
74075;BME280;62428;51.412;5.432;2023-07-02T09:29:24;100965.25;;;19.74;50.90
74075;BME280;62428;51.412;5.432;2023-07-02T09:31:49;100961.63;;;19.70;50.44
74075;BME280;62428;51.412;5.432;2023-07-02T09:34:16;100945.88;;;19.63;50.64
74075;BME280;62428;51.412;5.432;2023-07-02T09:36:43;100950.44;;;19.59;50.49
74075;BME280;62428;51.412;5.432;2023-07-02T09:39:13;100953.69;;;19.65;51.01
74075;BME280;62428;51.412;5.432;2023-07-02T09:41:42;100949.22;;;19.72;50.05
74075;BME280;62428;51.412;5.432;2023-07-02T09:44:09;100959.09;;;19.77;49.38
74075;BME280;62428;51.412;5.432;2023-07-02T09:46:42;100950.38;;;19.71;50.37
74075;BME280;62428;51.412;5.432;2023-07-02T09:49:12;100951.41;;;19.67;51.51
74075;BME280;62428;51.412;5.432;2023-07-02T09:51:39;100961.00;;;19.61;49.45
74075;BME280;62428;51.412;5.432;2023-07-02T09:54:05;100965.34;;;19.49;48.16
74075;BME280;62428;51.412;5.432;2023-07-02T09:56:31;100960.09;;;19.40;49.45
74075;BME280;62428;51.412;5.432;2023-07-02T09:58:56;100970.06;;;19.36;48.98
74075;BME280;62428;51.412;5.432;2023-07-02T10:01:22;100968.41;;;19.32;49.32
74075;BME280;62428;51.412;5.432;2023-07-02T10:03:47;100957.41;;;19.28;48.48
74075;BME280;62428;51.412;5.432;2023-07-02T10:06:13;100967.88;;;19.26;49.05
74075;BME280;62428;51.412;5.432;2023-07-02T10:08:38;100978.41;;;19.28;48.35
74075;BME280;62428;51.412;5.432;2023-07-02T10:11:13;100977.81;;;19.34;50.26
74075;BME280;62428;51.412;5.432;2023-07-02T10:13:39;100978.34;;;19.40;49.41
74075;BME280;62428;51.412;5.432;2023-07-02T10:16:05;100981.59;;;19.46;49.06
74075;BME280;62428;51.412;5.432;2023-07-02T10:18:31;100982.16;;;19.51;48.41
74075;BME280;62428;51.412;5.432;2023-07-02T10:20:57;100982.16;;;19.51;47.28
74075;BME280;62428;51.412;5.432;2023-07-02T10:23:42;100980.56;;;19.50;49.00
74075;BME280;62428;51.412;5.432;2023-07-02T10:26:16;100989.88;;;19.49;48.47
74075;BME280;62428;51.412;5.432;2023-07-02T10:28:42;100996.47;;;19.48;47.58
74075;BME280;62428;51.412;5.432;2023-07-02T10:31:20;100984.69;;;19.44;49.09
74075;BME280;62428;51.412;5.432;2023-07-02T10:33:46;100986.50;;;19.40;48.04
74075;BME280;62428;51.412;5.432;2023-07-02T10:36:19;100993.81;;;19.36;49.04
74075;BME280;62428;51.412;5.432;2023-07-02T10:38:45;100998.28;;;19.28;48.88
74075;BME280;62428;51.412;5.432;2023-07-02T10:41:12;101000.09;;;19.24;49.20
74075;BME280;62428;51.412;5.432;2023-07-02T10:43:37;100999.56;;;19.18;50.15
74075;BME280;62428;51.412;5.432;2023-07-02T10:46:03;101006.47;;;19.16;50.35
74075;BME280;62428;51.412;5.432;2023-07-02T10:48:30;100999.09;;;19.16;50.04
74075;BME280;62428;51.412;5.432;2023-07-02T10:50:56;101002.63;;;19.17;51.10
74075;BME280;62428;51.412;5.432;2023-07-02T10:53:21;101010.19;;;19.24;51.08
74075;BME280;62428;51.412;5.432;2023-07-02T10:55:56;100999.50;;;19.31;51.66
74075;BME280;62428;51.412;5.432;2023-07-02T10:58:23;100983.97;;;19.47;51.85
74075;BME280;62428;51.412;5.432;2023-07-02T11:00:50;100989.66;;;19.70;50.57
74075;BME280;62428;51.412;5.432;2023-07-02T11:05:42;100983.44;;;20.02;50.81
74075;BME280;62428;51.412;5.432;2023-07-02T11:08:08;100989.97;;;20.13;51.19
74075;BME280;62428;51.412;5.432;2023-07-02T11:10:34;100990.22;;;20.24;49.48
74075;BME280;62428;51.412;5.432;2023-07-02T11:13:13;100992.50;;;20.38;50.20
74075;BME280;62428;51.412;5.432;2023-07-02T11:15:39;100991.16;;;20.47;48.13
74075;BME280;62428;51.412;5.432;2023-07-02T11:18:15;100996.59;;;20.47;49.08
74075;BME280;62428;51.412;5.432;2023-07-02T11:20:43;100995.13;;;20.50;48.21
74075;BME280;62428;51.412;5.432;2023-07-02T11:23:21;100995.44;;;20.64;49.62
74075;BME280;62428;51.412;5.432;2023-07-02T11:25:56;100985.00;;;20.86;49.16
74075;BME280;62428;51.412;5.432;2023-07-02T11:28:23;100980.41;;;21.09;48.52
74075;BME280;62428;51.412;5.432;2023-07-02T11:30:48;100982.50;;;21.16;48.06
74075;BME280;62428;51.412;5.432;2023-07-02T11:33:13;100983.34;;;21.20;47.37
74075;BME280;62428;51.412;5.432;2023-07-02T11:35:39;100994.19;;;21.17;47.96
74075;BME280;62428;51.412;5.432;2023-07-02T11:38:04;100989.03;;;21.11;46.72
74075;BME280;62428;51.412;5.432;2023-07-02T11:40:30;100988.44;;;21.02;46.98
74075;BME280;62428;51.412;5.432;2023-07-02T11:42:55;100990.09;;;20.87;47.66
74075;BME280;62428;51.412;5.432;2023-07-02T11:45:20;100985.13;;;20.73;47.69
74075;BME280;62428;51.412;5.432;2023-07-02T11:47:46;100986.09;;;20.81;49.00
74075;BME280;62428;51.412;5.432;2023-07-02T11:50:11;100994.06;;;21.09;48.94
74075;BME280;62428;51.412;5.432;2023-07-02T11:52:38;100980.34;;;21.25;47.32
74075;BME280;62428;51.412;5.432;2023-07-02T11:55:03;100984.13;;;21.21;47.75
74075;BME280;62428;51.412;5.432;2023-07-02T11:57:29;100981.84;;;21.03;47.82
74075;BME280;62428;51.412;5.432;2023-07-02T11:59:54;100978.47;;;20.90;48.49
74075;BME280;62428;51.412;5.432;2023-07-02T12:02:20;100979.47;;;20.82;49.79
74075;BME280;62428;51.412;5.432;2023-07-02T12:04:45;100986.28;;;20.72;49.92
74075;BME280;62428;51.412;5.432;2023-07-02T12:07:10;100982.69;;;20.68;50.18
74075;BME280;62428;51.412;5.432;2023-07-02T12:09:36;100993.09;;;20.63;51.86
74075;BME280;62428;51.412;5.432;2023-07-02T12:12:03;100984.44;;;20.61;50.70
74075;BME280;62428;51.412;5.432;2023-07-02T12:14:28;100985.25;;;20.61;47.44
74075;BME280;62428;51.412;5.432;2023-07-02T12:16:54;100991.22;;;20.67;47.05
74075;BME280;62428;51.412;5.432;2023-07-02T12:19:19;100991.03;;;20.76;44.87
74075;BME280;62428;51.412;5.432;2023-07-02T12:21:44;100991.78;;;20.92;46.19
74075;BME280;62428;51.412;5.432;2023-07-02T12:24:10;100995.06;;;21.01;44.75
74075;BME280;62428;51.412;5.432;2023-07-02T12:26:36;100988.81;;;21.01;44.25
74075;BME280;62428;51.412;5.432;2023-07-02T12:29:02;100995.28;;;21.12;44.81
74075;BME280;62428;51.412;5.432;2023-07-02T12:31:27;100987.00;;;21.28;44.85
74075;BME280;62428;51.412;5.432;2023-07-02T12:33:52;100983.94;;;21.49;44.78
74075;BME280;62428;51.412;5.432;2023-07-02T12:36:18;100984.53;;;21.62;44.66
74075;BME280;62428;51.412;5.432;2023-07-02T12:38:43;100990.63;;;21.75;45.08
74075;BME280;62428;51.412;5.432;2023-07-02T12:41:09;100988.31;;;21.77;43.86
74075;BME280;62428;51.412;5.432;2023-07-02T12:43:34;100984.00;;;21.76;44.03
74075;BME280;62428;51.412;5.432;2023-07-02T12:45:59;100986.63;;;21.68;44.27
74075;BME280;62428;51.412;5.432;2023-07-02T12:48:25;100985.66;;;21.80;44.31